Time;durP1;ratioP1;P1;durP2;ratioP2;P2;SDS_P1;SDS_P2;PMS_P1;PMS_P2;Temp;Humidity;BMP_temperature;BMP_pressure;BME280_temperature;BME280_humidity;BME280_pressure;Samples;Min_cycle;Max_cycle;Signal;HPM_P1;HPM_P2
2023/02/10 00:01:11;;;;;;;45.27;24.03;;;4.10;99.90;;;;;;5092516;28;20479;-59
2023/02/10 00:03:40;;;;;;;40.63;22.47;;;4.10;99.90;;;;;;5092652;28;20480;-59
2023/02/10 00:06:11;;;;;;;36.57;19.83;;;4.10;99.90;;;;;;5092914;28;20577;-59
2023/02/10 00:08:40;;;;;;;37.90;20.97;;;4.10;99.90;;;;;;5094683;28;20951;-59
2023/02/10 00:11:10;;;;;;;36.57;20.90;;;4.20;99.90;;;;;;5113014;28;20456;-60
2023/02/10 00:13:39;;;;;;;42.93;22.60;;;4.20;99.90;;;;;;5098545;28;20822;-59
2023/02/10 00:16:10;;;;;;;45.40;23.40;;;4.20;99.90;;;;;;5095804;28;20464;-59
2023/02/10 00:18:39;;;;;;;45.23;22.33;;;4.20;99.90;;;;;;5092394;28;20472;-59
2023/02/10 00:21:10;;;;;;;39.43;21.73;;;4.10;99.90;;;;;;5112121;28;20469;-60
2023/02/10 00:23:38;;;;;;;45.97;22.13;;;4.30;99.90;;;;;;5092818;28;20565;-59
2023/02/10 00:26:06;;;;;;;44.30;22.53;;;4.20;99.90;;;;;;5093024;28;20487;-59
2023/02/10 00:28:36;;;;;;;45.50;22.90;;;4.20;99.90;;;;;;5092661;28;20470;-58
2023/02/10 00:31:07;;;;;;;37.17;21.30;;;4.10;99.90;;;;;;5074075;28;20559;-59
2023/02/10 00:33:35;;;;;;;43.93;22.63;;;4.20;99.90;;;;;;5093954;28;20470;-60
2023/02/10 00:36:05;;;;;;;38.07;21.90;;;4.20;99.90;;;;;;5113016;28;20461;-59
2023/02/10 00:38:34;;;;;;;44.00;21.83;;;4.20;99.90;;;;;;5112789;28;20451;-59
2023/02/10 00:41:04;;;;;;;37.17;20.20;;;4.00;99.90;;;;;;5094872;28;20459;-59
2023/02/10 00:43:32;;;;;;;42.57;21.10;;;4.10;99.90;;;;;;5079615;28;20483;-60
2023/02/10 00:46:00;;;;;;;36.43;20.10;;;4.10;99.90;;;;;;5078040;28;20469;-60
2023/02/10 00:48:29;;;;;;;37.30;18.37;;;4.10;99.90;;;;;;5092389;28;20497;-59
2023/02/10 00:50:57;;;;;;;38.30;20.33;;;4.00;99.90;;;;;;5110989;28;20460;-60
2023/02/10 00:53:26;;;;;;;34.30;18.93;;;4.10;99.90;;;;;;5094621;28;20467;-60
2023/02/10 00:55:57;;;;;;;36.47;17.93;;;4.00;99.90;;;;;;5092279;28;20514;-59
2023/02/10 00:58:26;;;;;;;43.43;19.13;;;4.00;99.90;;;;;;5092389;28;20471;-59
2023/02/10 01:00:55;;;;;;;40.23;19.37;;;4.10;99.90;;;;;;5091475;28;20476;-59
2023/02/10 01:03:23;;;;;;;38.03;18.93;;;4.10;99.90;;;;;;5109401;28;20863;-59
2023/02/10 01:05:52;;;;;;;34.73;18.47;;;4.00;99.90;;;;;;5112583;28;20457;-59
2023/02/10 01:08:20;;;;;;;29.53;15.90;;;4.00;99.90;;;;;;5112700;28;20965;-59
2023/02/10 01:10:48;;;;;;;32.20;16.93;;;4.10;99.90;;;;;;5112497;28;20453;-60
2023/02/10 01:13:17;;;;;;;32.03;18.57;;;4.10;99.90;;;;;;5080811;28;21001;-59
2023/02/10 01:15:47;;;;;;;32.63;17.13;;;4.20;99.90;;;;;;5097890;28;20462;-59
2023/02/10 01:18:16;;;;;;;32.80;16.97;;;4.20;99.90;;;;;;5092017;28;20518;-59
2023/02/10 01:20:44;;;;;;;33.27;17.87;;;4.20;99.90;;;;;;5087238;28;20564;-60
2023/02/10 01:23:12;;;;;;;34.50;17.60;;;4.20;99.90;;;;;;5092519;28;20816;-59
2023/02/10 01:25:40;;;;;;;36.97;19.50;;;4.30;99.90;;;;;;5091855;28;20487;-60
2023/02/10 01:28:10;;;;;;;35.53;16.10;;;4.30;99.90;;;;;;5092098;28;20457;-59
2023/02/10 01:30:40;;;;;;;34.13;17.57;;;4.30;99.90;;;;;;5091826;28;20520;-59
2023/02/10 01:33:08;;;;;;;38.17;18.57;;;4.30;99.90;;;;;;5108654;28;20523;-60
2023/02/10 01:35:38;;;;;;;42.83;18.33;;;4.30;99.90;;;;;;5093687;28;20459;-59
2023/02/10 01:38:07;;;;;;;34.90;17.57;;;4.30;99.90;;;;;;5112705;28;20474;-59
2023/02/10 01:40:36;;;;;;;35.20;18.37;;;4.20;99.90;;;;;;5115824;28;20947;-60
2023/02/10 01:43:10;;;;;;;31.50;15.90;;;4.20;99.90;;;;;;5114992;28;20486;-59
2023/02/10 01:45:40;;;;;;;38.27;18.50;;;4.40;99.90;;;;;;5101266;28;20836;-59
2023/02/10 01:48:09;;;;;;;32.80;17.03;;;4.20;99.90;;;;;;5077343;28;20487;-60
2023/02/10 01:50:41;;;;;;;33.50;18.43;;;4.20;99.90;;;;;;5077018;28;20472;-60
2023/02/10 01:53:11;;;;;;;38.47;17.70;;;4.30;99.90;;;;;;5095533;28;20456;-60
2023/02/10 01:55:42;;;;;;;35.73;18.20;;;4.20;99.90;;;;;;5095151;28;20456;-59
2023/02/10 01:58:15;;;;;;;30.97;16.90;;;4.30;99.90;;;;;;5077706;28;20471;-59
2023/02/10 02:00:44;;;;;;;33.97;17.53;;;4.20;99.90;;;;;;5096689;28;20476;-59
2023/02/10 02:03:14;;;;;;;29.67;16.33;;;4.20;99.90;;;;;;5097235;28;20482;-60
2023/02/10 02:05:43;;;;;;;30.97;16.67;;;4.20;99.90;;;;;;5115348;28;20497;-59
2023/02/10 02:08:16;;;;;;;38.83;16.93;;;4.30;99.90;;;;;;5096479;28;21038;-60
2023/02/10 02:11:01;;;;;;;33.67;16.87;;;4.20;99.90;;;;;;5094973;28;20475;-59
2023/02/10 02:13:43;;;;;;;33.77;18.63;;;4.30;99.90;;;;;;5099534;28;20491;-60
2023/02/10 02:16:24;;;;;;;37.30;18.90;;;4.20;99.90;;;;;;5089719;28;20467;-60
2023/02/10 02:19:01;;;;;;;36.23;16.97;;;4.20;99.90;;;;;;5094878;28;21013;-60
2023/02/10 02:21:57;;;;;;;32.47;19.00;;;4.20;99.90;;;;;;5094687;28;20456;-59
2023/02/10 02:24:49;;;;;;;39.13;19.80;;;4.30;99.90;;;;;;5094884;28;20824;-59
2023/02/10 02:27:40;;;;;;;30.13;17.60;;;4.20;99.90;;;;;;5068590;28;21011;-59
2023/02/10 02:30:44;;;;;;;39.03;19.93;;;4.30;99.90;;;;;;5094710;28;20217;-59
2023/02/10 02:33:19;;;;;;;35.93;19.13;;;4.20;99.90;;;;;;5081256;28;20476;-59
2023/02/10 02:35:54;;;;;;;36.10;18.33;;;4.10;99.90;;;;;;5087749;28;20793;-60
2023/02/10 02:38:23;;;;;;;36.20;18.07;;;4.30;99.90;;;;;;5094559;28;20471;-59
2023/02/10 02:40:52;;;;;;;38.20;18.47;;;4.20;99.90;;;;;;5076244;28;20452;-60
2023/02/10 02:43:20;;;;;;;32.80;19.27;;;4.10;99.90;;;;;;5079009;28;21055;-59
2023/02/10 02:45:58;;;;;;;39.13;20.47;;;4.10;99.90;;;;;;5080984;28;20496;-59
2023/02/10 02:48:41;;;;;;;31.17;17.60;;;4.20;99.90;;;;;;5094199;28;20463;-60
2023/02/10 02:51:15;;;;;;;36.83;19.23;;;4.10;99.90;;;;;;5074073;28;20463;-59
2023/02/10 02:53:50;;;;;;;33.60;18.77;;;4.20;99.90;;;;;;5073811;28;20875;-60
2023/02/10 02:56:29;;;;;;;37.23;19.63;;;4.20;99.90;;;;;;5098716;28;20982;-58
2023/02/10 02:59:04;;;;;;;31.30;18.90;;;4.20;99.90;;;;;;5114557;28;20443;-59
2023/02/10 03:01:37;;;;;;;31.70;17.50;;;4.10;99.90;;;;;;5113560;28;20470;-59
2023/02/10 03:04:08;;;;;;;29.50;18.40;;;4.10;99.90;;;;;;5105309;28;20473;-59
2023/02/10 03:06:37;;;;;;;36.27;18.70;;;4.10;99.90;;;;;;5102269;28;21013;-59
2023/02/10 03:09:05;;;;;;;39.30;19.77;;;4.10;99.90;;;;;;5075576;28;20518;-59
2023/02/10 03:11:33;;;;;;;39.97;21.13;;;4.00;99.90;;;;;;5093669;28;20466;-59
2023/02/10 03:14:01;;;;;;;39.33;18.30;;;4.00;99.90;;;;;;5100351;28;20455;-60
2023/02/10 03:16:29;;;;;;;38.20;21.57;;;4.10;99.90;;;;;;5093901;28;20457;-59
2023/02/10 03:18:57;;;;;;;38.80;20.73;;;4.10;99.90;;;;;;5095241;28;20461;-60
2023/02/10 03:21:27;;;;;;;34.87;19.10;;;4.00;99.90;;;;;;5114199;28;20528;-60
2023/02/10 03:23:55;;;;;;;35.43;21.03;;;4.00;99.90;;;;;;5114291;28;20469;-60
2023/02/10 03:26:23;;;;;;;33.27;19.70;;;4.00;99.90;;;;;;5113907;28;20490;-60
2023/02/10 03:28:51;;;;;;;38.03;21.30;;;4.00;99.90;;;;;;5102669;28;20468;-59
2023/02/10 03:31:19;;;;;;;35.40;19.13;;;4.00;99.90;;;;;;5095547;28;20481;-59
2023/02/10 03:33:47;;;;;;;29.87;17.53;;;3.90;99.90;;;;;;5113866;28;20513;-60
2023/02/10 03:36:15;;;;;;;32.40;19.73;;;4.00;99.90;;;;;;5114068;28;20452;-60
2023/02/10 03:38:45;;;;;;;35.77;20.60;;;3.90;99.90;;;;;;5113894;28;20543;-59
2023/02/10 03:41:13;;;;;;;34.17;19.13;;;4.00;99.90;;;;;;5104669;28;20509;-60
2023/02/10 03:43:42;;;;;;;37.50;19.50;;;3.90;99.90;;;;;;5099319;28;20477;-59
2023/02/10 03:46:11;;;;;;;39.27;19.07;;;4.00;99.90;;;;;;5087645;28;20487;-60
2023/02/10 03:48:39;;;;;;;35.17;19.17;;;3.80;99.90;;;;;;5093129;28;20464;-60
2023/02/10 03:51:08;;;;;;;35.97;20.30;;;3.80;99.90;;;;;;5113267;28;20485;-60
2023/02/10 03:53:36;;;;;;;35.00;19.57;;;3.80;99.90;;;;;;5113719;28;20950;-59
2023/02/10 03:56:06;;;;;;;35.80;18.93;;;3.70;99.90;;;;;;5113536;28;20448;-60
2023/02/10 03:58:34;;;;;;;39.23;19.20;;;3.70;99.90;;;;;;5111592;28;20469;-59
2023/02/10 04:01:09;;;;;;;35.93;18.33;;;3.60;99.90;;;;;;5092477;28;20988;-58
2023/02/10 04:03:37;;;;;;;32.23;15.77;;;3.60;99.90;;;;;;5093118;28;20558;-60
2023/02/10 04:06:06;;;;;;;40.83;20.37;;;3.80;99.90;;;;;;5093053;28;20484;-60
2023/02/10 04:08:34;;;;;;;31.50;17.33;;;3.70;99.90;;;;;;5092827;28;20460;-59
2023/02/10 04:11:02;;;;;;;36.07;19.83;;;3.70;99.90;;;;;;5093178;28;20463;-59
2023/02/10 04:13:32;;;;;;;35.07;18.30;;;3.70;99.90;;;;;;5097349;28;20489;-59
2023/02/10 04:16:02;;;;;;;34.60;19.10;;;3.70;99.90;;;;;;5094185;28;20457;-60
2023/02/10 04:18:30;;;;;;;29.30;17.77;;;3.60;99.90;;;;;;5092790;28;20834;-60
2023/02/10 04:20:58;;;;;;;35.50;19.03;;;3.70;99.90;;;;;;5111630;28;20486;-60
2023/02/10 04:23:26;;;;;;;34.07;19.30;;;3.60;99.90;;;;;;5113300;28;20526;-59
2023/02/10 04:25:54;;;;;;;35.13;17.77;;;3.50;99.90;;;;;;5113292;28;20488;-60
2023/02/10 04:28:23;;;;;;;31.33;18.97;;;3.60;99.90;;;;;;5113391;28;20978;-59
2023/02/10 04:30:53;;;;;;;35.67;18.97;;;3.60;99.90;;;;;;5104967;28;20520;-60
2023/02/10 04:33:22;;;;;;;38.77;18.50;;;3.50;99.90;;;;;;5107948;28;20974;-60
2023/02/10 04:35:50;;;;;;;35.40;17.20;;;3.50;99.90;;;;;;5113156;28;20467;-59
2023/02/10 04:38:18;;;;;;;28.90;16.17;;;3.50;99.90;;;;;;5113112;28;20457;-59
2023/02/10 04:40:46;;;;;;;31.33;17.50;;;3.60;99.90;;;;;;5112990;28;20470;-59
2023/02/10 04:43:15;;;;;;;31.77;17.63;;;3.60;99.90;;;;;;5110391;28;20482;-59
2023/02/10 04:45:44;;;;;;;33.47;18.17;;;3.50;99.90;;;;;;5092455;28;20484;-60
2023/02/10 04:48:14;;;;;;;32.33;17.07;;;3.60;99.90;;;;;;5089157;28;20463;-60
2023/02/10 04:50:43;;;;;;;32.57;17.13;;;3.50;99.90;;;;;;5110333;28;20822;-60
2023/02/10 04:53:11;;;;;;;32.23;19.23;;;3.60;99.90;;;;;;5107152;28;20461;-60
2023/02/10 04:55:39;;;;;;;39.83;19.03;;;3.60;99.90;;;;;;5112842;28;20497;-59
2023/02/10 04:58:08;;;;;;;34.17;17.57;;;3.60;99.90;;;;;;5112888;28;20457;-59
2023/02/10 05:00:36;;;;;;;33.67;18.07;;;3.50;99.90;;;;;;5107990;28;20455;-60
2023/02/10 05:03:04;;;;;;;37.20;17.87;;;3.50;99.90;;;;;;5092037;28;20502;-59
2023/02/10 05:05:33;;;;;;;35.60;17.03;;;3.50;99.90;;;;;;5092496;28;20522;-59
2023/02/10 05:08:01;;;;;;;28.83;17.27;;;3.50;99.90;;;;;;5094644;28;20477;-60
2023/02/10 05:10:29;;;;;;;31.07;15.87;;;3.50;99.90;;;;;;5096318;28;20831;-59
2023/02/10 05:12:57;;;;;;;33.10;17.00;;;3.50;99.90;;;;;;5096375;28;20463;-60
2023/02/10 05:15:25;;;;;;;32.67;18.67;;;3.60;99.90;;;;;;5102221;28;20523;-60
2023/02/10 05:17:53;;;;;;;35.63;19.10;;;3.50;99.90;;;;;;5098582;28;20461;-59
2023/02/10 05:20:21;;;;;;;34.93;18.23;;;3.60;99.90;;;;;;5103686;28;20978;-59
2023/02/10 05:22:51;;;;;;;32.83;17.37;;;3.70;99.90;;;;;;5107133;28;20474;-60
2023/02/10 05:25:19;;;;;;;34.20;17.07;;;3.50;99.90;;;;;;5114891;28;20475;-60
2023/02/10 05:27:47;;;;;;;34.07;19.03;;;3.70;99.90;;;;;;5111665;28;20486;-59
2023/02/10 05:30:15;;;;;;;34.17;18.23;;;3.70;99.90;;;;;;5114190;28;20507;-59
2023/02/10 05:32:44;;;;;;;35.90;17.97;;;3.70;99.90;;;;;;5095762;28;20516;-60
2023/02/10 05:35:12;;;;;;;34.33;17.63;;;3.60;99.90;;;;;;5101929;28;20459;-60
2023/02/10 05:37:40;;;;;;;28.80;16.53;;;3.50;99.90;;;;;;5095776;28;20463;-59
2023/02/10 05:40:10;;;;;;;35.00;18.00;;;3.50;99.90;;;;;;5095924;28;20994;-59
2023/02/10 05:42:38;;;;;;;33.97;16.37;;;3.40;99.90;;;;;;5095576;28;20483;-60
2023/02/10 05:45:07;;;;;;;33.73;18.50;;;3.60;99.90;;;;;;5105763;28;20456;-60
2023/02/10 05:47:35;;;;;;;36.00;17.67;;;3.50;99.90;;;;;;5095349;28;20491;-59
2023/02/10 05:50:03;;;;;;;33.73;17.70;;;3.50;99.90;;;;;;5106602;28;20460;-59
2023/02/10 05:52:31;;;;;;;38.77;19.23;;;3.60;99.90;;;;;;5115592;28;20459;-60
2023/02/10 05:54:59;;;;;;;43.40;20.57;;;3.50;99.90;;;;;;5115691;28;20462;-59
2023/02/10 05:57:29;;;;;;;36.33;17.13;;;3.40;99.90;;;;;;5104092;28;20546;-59
2023/02/10 05:59:57;;;;;;;38.63;20.23;;;3.40;99.90;;;;;;5099544;28;20471;-59
2023/02/10 06:02:25;;;;;;;40.60;20.43;;;3.40;99.90;;;;;;5094423;28;20496;-58
2023/02/10 06:04:53;;;;;;;42.10;20.87;;;3.50;99.90;;;;;;5095279;28;20968;-60
2023/02/10 06:07:21;;;;;;;33.53;19.20;;;3.40;99.90;;;;;;5095249;28;21009;-60
2023/02/10 06:09:49;;;;;;;37.93;20.93;;;3.40;99.90;;;;;;5109367;28;20462;-60
2023/02/10 06:12:17;;;;;;;35.73;20.17;;;3.30;99.90;;;;;;5115707;28;20521;-60
2023/02/10 06:14:47;;;;;;;33.30;19.10;;;3.40;99.90;;;;;;5106275;28;20829;-60
2023/02/10 06:17:15;;;;;;;42.20;21.10;;;3.30;99.90;;;;;;5094328;28;20471;-60
2023/02/10 06:19:43;;;;;;;38.17;19.53;;;3.40;99.90;;;;;;5101673;28;20467;-60
2023/02/10 06:22:11;;;;;;;36.93;20.07;;;3.40;99.90;;;;;;5115470;28;20471;-60
2023/02/10 06:24:41;;;;;;;32.97;18.10;;;3.50;99.90;;;;;;5115303;28;20949;-60
2023/02/10 06:27:09;;;;;;;44.27;21.47;;;3.50;99.90;;;;;;5115107;28;20490;-60
2023/02/10 06:29:37;;;;;;;33.50;18.70;;;3.40;99.90;;;;;;5115229;28;21001;-59
2023/02/10 06:32:06;;;;;;;38.60;20.97;;;3.80;99.90;;;;;;5097582;28;20482;-60
2023/02/10 06:34:35;;;;;;;42.37;20.70;;;3.60;99.90;;;;;;5096337;28;20984;-59
2023/02/10 06:37:03;;;;;;;37.57;21.90;;;3.50;99.90;;;;;;5115027;28;20818;-59
2023/02/10 06:39:31;;;;;;;35.03;20.43;;;3.40;99.90;;;;;;5111390;28;20465;-59
2023/02/10 06:42:00;;;;;;;39.93;22.80;;;3.30;99.90;;;;;;5112043;28;20467;-60
2023/02/10 06:44:28;;;;;;;34.60;20.83;;;3.30;99.90;;;;;;5106337;28;20987;-59
2023/02/10 06:46:56;;;;;;;35.40;20.83;;;3.50;99.90;;;;;;5104642;28;20474;-59
2023/02/10 06:49:27;;;;;;;33.50;19.97;;;3.40;99.90;;;;;;5099927;28;20464;-59
2023/02/10 06:51:56;;;;;;;38.70;21.53;;;3.40;99.90;;;;;;5107551;28;20534;-60
2023/02/10 06:54:24;;;;;;;42.40;20.47;;;3.30;99.90;;;;;;5113632;28;20461;-59
2023/02/10 06:56:52;;;;;;;40.10;20.53;;;3.40;99.90;;;;;;5086952;28;20462;-59
2023/02/10 06:59:20;;;;;;;33.03;19.60;;;3.30;99.90;;;;;;5094881;28;20479;-59
2023/02/10 07:01:48;;;;;;;35.40;20.53;;;3.30;99.90;;;;;;5093479;28;20486;-60
2023/02/10 07:04:16;;;;;;;35.10;19.33;;;3.30;99.90;;;;;;5100777;28;20821;-59
2023/02/10 07:06:45;;;;;;;37.13;20.07;;;3.30;99.90;;;;;;5104410;28;20467;-60
2023/02/10 07:09:14;;;;;;;36.37;18.13;;;3.30;99.90;;;;;;5104783;28;20967;-60
2023/02/10 07:11:42;;;;;;;34.33;18.90;;;3.30;99.90;;;;;;5103228;28;20475;-59
2023/02/10 07:14:10;;;;;;;35.13;19.10;;;3.30;99.90;;;;;;5101441;28;20466;-59
2023/02/10 07:16:38;;;;;;;36.03;19.47;;;3.30;99.90;;;;;;5102736;28;20457;-59
2023/02/10 07:19:06;;;;;;;36.20;19.10;;;3.30;99.90;;;;;;5109124;28;20478;-59
2023/02/10 07:21:34;;;;;;;32.63;18.07;;;3.30;99.90;;;;;;5095447;28;20482;-60
2023/02/10 07:24:04;;;;;;;40.33;18.87;;;3.30;99.90;;;;;;5113056;28;20979;-60
2023/02/10 07:26:32;;;;;;;33.20;17.70;;;3.30;99.90;;;;;;5096905;28;20475;-59
2023/02/10 07:29:00;;;;;;;31.07;19.03;;;3.30;99.90;;;;;;5093505;28;20491;-58
2023/02/10 07:31:28;;;;;;;35.30;17.93;;;3.30;99.90;;;;;;5095847;28;20986;-59
2023/02/10 07:33:56;;;;;;;30.27;18.27;;;3.30;99.90;;;;;;5094921;28;20464;-60
2023/02/10 07:36:25;;;;;;;28.73;17.63;;;3.30;99.90;;;;;;5093642;28;20460;-59
2023/02/10 07:38:53;;;;;;;32.40;17.80;;;3.40;99.90;;;;;;5094593;28;20482;-59
2023/02/10 07:41:22;;;;;;;35.83;18.93;;;3.40;99.90;;;;;;5091554;28;20500;-60
2023/02/10 07:43:50;;;;;;;33.33;19.07;;;3.30;99.90;;;;;;5089453;28;20493;-57
2023/02/10 07:46:20;;;;;;;30.03;18.80;;;3.30;99.90;;;;;;5074725;28;20877;-59
2023/02/10 07:48:48;;;;;;;40.40;18.57;;;3.30;99.90;;;;;;5093152;28;20569;-60
2023/02/10 07:51:16;;;;;;;29.33;16.37;;;3.40;99.90;;;;;;5113838;28;20481;-60
2023/02/10 07:53:44;;;;;;;29.07;17.63;;;3.40;99.90;;;;;;5113617;28;20460;-60
2023/02/10 07:56:12;;;;;;;31.40;18.03;;;3.40;99.90;;;;;;5113525;28;20966;-60
2023/02/10 07:58:41;;;;;;;33.00;18.37;;;3.30;99.90;;;;;;5113529;28;20480;-59
2023/02/10 08:01:11;;;;;;;30.23;18.07;;;3.40;99.90;;;;;;5111423;28;21023;-60
2023/02/10 08:03:39;;;;;;;35.10;17.87;;;3.40;99.90;;;;;;5093109;28;20964;-59
2023/02/10 08:06:07;;;;;;;35.53;19.80;;;3.30;99.90;;;;;;5095059;28;20819;-60
2023/02/10 08:08:36;;;;;;;34.93;18.37;;;3.30;99.90;;;;;;5113113;28;20481;-59
2023/02/10 08:11:05;;;;;;;36.87;18.07;;;3.30;99.90;;;;;;5113250;28;20549;-60
2023/02/10 08:13:33;;;;;;;31.20;18.77;;;3.30;99.90;;;;;;5111883;28;20554;-59
2023/02/10 08:16:07;;;;;;;33.43;18.90;;;3.40;99.90;;;;;;5097314;28;20486;-60
2023/02/10 08:18:35;;;;;;;33.77;18.47;;;3.40;99.90;;;;;;5092486;28;20458;-59
2023/02/10 08:21:04;;;;;;;34.37;19.97;;;3.40;99.90;;;;;;5112313;28;20974;-59
2023/02/10 08:23:33;;;;;;;38.27;20.17;;;3.40;99.90;;;;;;5113248;28;20475;-60
2023/02/10 08:26:06;;;;;;;39.70;18.00;;;3.40;99.90;;;;;;5095865;28;20963;-59
2023/02/10 08:28:35;;;;;;;34.13;17.43;;;3.40;99.90;;;;;;5092735;28;20481;-60
2023/02/10 08:31:09;;;;;;;31.73;19.13;;;3.50;99.90;;;;;;5101206;28;20480;-60
2023/02/10 08:33:38;;;;;;;37.23;19.43;;;3.50;99.90;;;;;;5092724;28;20945;-59
2023/02/10 08:36:16;;;;;;;36.50;19.67;;;3.40;99.90;;;;;;5100544;28;20570;-60
2023/02/10 08:38:45;;;;;;;31.97;19.73;;;3.40;99.90;;;;;;5101479;28;20470;-60
2023/02/10 08:41:13;;;;;;;27.57;17.73;;;3.40;99.90;;;;;;5101960;28;20815;-60
2023/02/10 08:43:42;;;;;;;36.77;20.30;;;3.40;99.90;;;;;;5106421;28;20830;-59
2023/02/10 08:46:13;;;;;;;33.43;19.63;;;3.40;99.90;;;;;;5101037;28;20457;-59
2023/02/10 08:48:41;;;;;;;33.77;19.03;;;3.50;99.90;;;;;;5104591;28;20479;-59
2023/02/10 08:51:11;;;;;;;37.00;20.43;;;3.60;99.90;;;;;;5103766;28;20487;-60
2023/02/10 08:53:39;;;;;;;34.57;19.17;;;3.60;99.90;;;;;;5105909;28;20469;-58
2023/02/10 08:56:09;;;;;;;35.10;19.30;;;3.70;99.90;;;;;;5106019;28;20472;-60
2023/02/10 08:58:37;;;;;;;40.93;19.57;;;3.70;99.90;;;;;;5105224;28;20507;-60
2023/02/10 09:01:11;;;;;;;39.60;19.47;;;3.70;99.90;;;;;;5106202;28;20474;-60
2023/02/10 09:03:40;;;;;;;33.97;19.70;;;3.80;99.90;;;;;;5104526;28;20460;-59
2023/02/10 09:06:14;;;;;;;35.30;18.53;;;3.90;99.90;;;;;;5107240;28;20467;-59
2023/02/10 09:08:43;;;;;;;34.67;20.13;;;3.80;99.90;;;;;;5104932;28;20481;-60
2023/02/10 09:11:11;;;;;;;31.33;19.70;;;3.80;99.90;;;;;;5105645;28;20471;-59
2023/02/10 09:13:39;;;;;;;33.53;18.47;;;4.00;99.90;;;;;;5106622;28;20475;-59
2023/02/10 09:16:08;;;;;;;36.07;20.30;;;4.00;99.90;;;;;;5083984;28;20799;-60
2023/02/10 09:18:37;;;;;;;34.63;19.60;;;4.00;99.90;;;;;;5102788;28;20498;-59
2023/02/10 09:21:06;;;;;;;33.37;19.47;;;4.20;99.90;;;;;;5105096;28;20493;-59
2023/02/10 09:23:34;;;;;;;36.60;20.30;;;4.10;99.90;;;;;;5105170;28;20557;-59
2023/02/10 09:26:02;;;;;;;34.07;19.40;;;4.10;99.90;;;;;;5089005;28;20474;-59
2023/02/10 09:28:30;;;;;;;34.17;20.27;;;4.20;99.90;;;;;;5104771;28;20568;-59
2023/02/10 09:30:59;;;;;;;37.67;19.47;;;4.30;99.90;;;;;;5104951;28;20470;-60
2023/02/10 09:33:27;;;;;;;31.83;18.87;;;4.40;99.90;;;;;;5111327;28;20946;-59
2023/02/10 09:35:57;;;;;;;29.50;18.83;;;4.40;99.90;;;;;;5092948;28;20468;-59
2023/02/10 09:38:25;;;;;;;32.30;19.13;;;4.50;99.90;;;;;;5116389;28;20461;-59
2023/02/10 09:41:03;;;;;;;30.67;19.40;;;4.60;99.90;;;;;;5110762;28;20804;-59
2023/02/10 09:43:53;;;;;;;35.53;19.50;;;4.70;99.90;;;;;;5100228;28;20472;-59
2023/02/10 09:46:27;;;;;;;29.43;18.33;;;4.70;99.90;;;;;;5096610;28;20475;-59
2023/02/10 09:49:09;;;;;;;28.60;17.57;;;4.90;99.90;;;;;;5103285;28;20489;-60
2023/02/10 09:51:46;;;;;;;32.50;19.07;;;5.00;99.90;;;;;;5105051;28;20467;-59
2023/02/10 09:54:17;;;;;;;35.87;18.03;;;5.00;99.90;;;;;;5097558;28;20471;-60
2023/02/10 09:56:46;;;;;;;36.67;17.93;;;5.10;99.90;;;;;;5104923;28;20494;-60
2023/02/10 09:59:19;;;;;;;31.17;18.57;;;5.10;99.90;;;;;;5095228;28;20462;-59
2023/02/10 10:01:52;;;;;;;28.77;16.67;;;5.10;99.90;;;;;;5094852;28;21018;-60
2023/02/10 10:04:23;;;;;;;30.40;18.10;;;5.20;99.90;;;;;;5100773;28;20560;-59
2023/02/10 10:07:02;;;;;;;33.57;17.67;;;5.30;99.90;;;;;;5101768;28;20467;-60
2023/02/10 10:09:39;;;;;;;23.80;15.33;;;5.30;99.90;;;;;;5105728;28;20478;-59
2023/02/10 10:12:10;;;;;;;29.87;17.37;;;5.40;99.90;;;;;;5105149;28;20456;-60
2023/02/10 10:14:43;;;;;;;35.83;17.27;;;5.60;99.90;;;;;;5097219;28;20502;-59
2023/02/10 10:17:33;;;;;;;31.87;17.53;;;5.60;99.90;;;;;;5101090;28;20224;-59
2023/02/10 10:20:25;;;;;;;26.00;15.33;;;5.60;99.90;;;;;;5104251;28;20990;-60
2023/02/10 10:23:12;;;;;;;31.37;16.80;;;5.80;99.90;;;;;;5098846;28;20824;-59
2023/02/10 10:26:03;;;;;;;27.53;15.70;;;5.90;99.90;;;;;;5108591;28;20466;-60
2023/02/10 10:28:43;;;;;;;22.23;14.40;;;5.90;99.90;;;;;;5113192;28;20252;-59
2023/02/10 10:31:15;;;;;;;24.50;15.00;;;6.10;99.90;;;;;;5104397;28;20470;-59
2023/02/10 10:33:50;;;;;;;26.00;13.87;;;6.40;99.90;;;;;;5103292;28;20477;-60
2023/02/10 10:36:20;;;;;;;27.03;14.67;;;6.60;99.90;;;;;;5112345;28;20470;-60
2023/02/10 10:38:52;;;;;;;24.23;13.50;;;6.70;99.90;;;;;;5115069;28;20464;-60
2023/02/10 10:41:26;;;;;;;22.80;14.10;;;6.90;99.90;;;;;;5115207;28;20727;-59
2023/02/10 10:43:56;;;;;;;27.90;14.80;;;7.10;99.90;;;;;;5092032;28;20248;-59
2023/02/10 10:46:28;;;;;;;28.63;14.10;;;7.30;99.90;;;;;;5094235;28;20226;-59
2023/02/10 10:48:57;;;;;;;23.73;13.67;;;7.50;99.90;;;;;;5102248;28;20235;-59
2023/02/10 10:51:25;;;;;;;20.60;12.00;;;7.80;99.90;;;;;;5094672;28;20218;-59
2023/02/10 10:53:57;;;;;;;21.03;12.27;;;7.90;99.90;;;;;;5099295;28;20593;-59
2023/02/10 10:56:32;;;;;;;24.70;12.67;;;7.80;99.90;;;;;;5094380;28;20713;-60
2023/02/10 10:59:04;;;;;;;22.80;12.77;;;8.00;99.90;;;;;;5107907;28;20228;-60
2023/02/10 11:01:35;;;;;;;23.33;12.10;;;8.00;99.90;;;;;;5113883;28;20602;-59
2023/02/10 11:04:05;;;;;;;24.77;12.90;;;8.00;99.90;;;;;;5104527;28;20861;-57
2023/02/10 11:06:36;;;;;;;22.57;12.10;;;8.00;99.90;;;;;;5113855;28;20707;-59
2023/02/10 11:09:16;;;;;;;21.10;11.33;;;8.10;99.90;;;;;;5097236;28;20310;-59
2023/02/10 11:11:44;;;;;;;23.80;12.03;;;8.00;99.90;;;;;;5093693;28;20245;-58
2023/02/10 11:14:15;;;;;;;21.17;10.70;;;8.00;99.90;;;;;;5103676;28;20222;-59
2023/02/10 11:16:46;;;;;;;21.17;11.03;;;7.90;99.90;;;;;;5097540;28;20221;-60
2023/02/10 11:19:21;;;;;;;26.40;12.60;;;7.90;99.90;;;;;;5099693;28;20681;-60
2023/02/10 11:21:50;;;;;;;19.17;10.80;;;7.90;99.90;;;;;;5103279;28;20218;-59
2023/02/10 11:24:22;;;;;;;24.27;11.37;;;8.00;99.90;;;;;;5103672;28;20585;-59
2023/02/10 11:27:01;;;;;;;20.87;11.00;;;8.00;99.90;;;;;;5097644;28;20218;-59
2023/02/10 11:29:34;;;;;;;20.17;11.87;;;8.00;99.90;;;;;;5103874;28;20697;-60
2023/02/10 11:32:02;;;;;;;24.20;11.20;;;8.10;99.90;;;;;;5093733;28;20230;-59
2023/02/10 11:34:33;;;;;;;22.37;10.87;;;8.20;99.90;;;;;;5093622;28;20283;-60
2023/02/10 11:37:11;;;;;;;22.83;10.60;;;8.30;99.90;;;;;;5077478;28;20235;-59
2023/02/10 11:39:43;;;;;;;20.20;9.67;;;8.30;99.90;;;;;;5073016;28;20215;-59
2023/02/10 11:42:18;;;;;;;21.50;10.23;;;8.50;99.90;;;;;;5073240;28;20241;-59
2023/02/10 11:44:55;;;;;;;23.27;10.10;;;8.70;99.90;;;;;;5088113;28;20234;-59
2023/02/10 11:47:23;;;;;;;17.60;9.33;;;8.70;99.90;;;;;;5099676;28;20217;-59
2023/02/10 11:49:51;;;;;;;18.93;8.67;;;8.70;99.90;;;;;;5105086;28;20558;-60
2023/02/10 11:52:22;;;;;;;16.90;9.10;;;8.80;99.90;;;;;;5106856;28;20214;-60
2023/02/10 11:54:52;;;;;;;20.17;10.40;;;8.90;99.90;;;;;;5093294;28;20223;-59
2023/02/10 12:00:26;;;;;;;14.73;7.43;;;9.00;99.90;;;;;;5092849;28;20215;-60
2023/02/10 12:03:36;;;;;;;16.73;8.20;;;8.90;99.90;;;;;;5098441;28;20226;-60
2023/02/10 12:06:08;;;;;;;15.33;8.27;;;8.80;99.90;;;;;;5093229;28;20227;-59
2023/02/10 12:08:48;;;;;;;20.63;8.40;;;8.80;99.90;;;;;;5093064;28;20262;-59
2023/02/10 12:11:24;;;;;;;18.80;8.30;;;8.90;99.90;;;;;;5102737;28;20237;-59
2023/02/10 12:14:03;;;;;;;21.80;8.93;;;8.70;99.90;;;;;;5098990;28;20223;-60
2023/02/10 12:16:42;;;;;;;20.73;8.03;;;8.80;99.90;;;;;;5097675;28;20237;-59
2023/02/10 12:19:20;;;;;;;14.80;7.70;;;8.90;99.90;;;;;;5097737;28;20236;-59
2023/02/10 12:22:07;;;;;;;13.97;6.97;;;8.80;99.90;;;;;;5098747;28;20230;-60
2023/02/10 12:24:58;;;;;;;10.87;6.13;;;8.70;99.90;;;;;;5100908;28;20225;-59
2023/02/10 12:27:38;;;;;;;14.20;6.47;;;8.70;99.90;;;;;;5102472;28;20222;-59
2023/02/10 12:30:15;;;;;;;14.77;6.83;;;8.70;99.90;;;;;;5103401;28;20217;-60
2023/02/10 12:32:55;;;;;;;14.40;6.17;;;8.80;99.90;;;;;;5102621;28;20233;-60
2023/02/10 12:35:33;;;;;;;10.67;6.10;;;8.80;99.90;;;;;;5102021;28;20309;-60
2023/02/10 12:38:20;;;;;;;12.30;6.30;;;8.90;99.90;;;;;;5101585;28;20697;-59
2023/02/10 12:40:59;;;;;;;13.57;6.07;;;8.90;99.90;;;;;;5102716;28;20574;-59
2023/02/10 12:43:40;;;;;;;12.57;5.90;;;8.80;99.90;;;;;;5103943;28;20240;-59
2023/02/10 12:46:18;;;;;;;11.67;6.37;;;8.80;99.90;;;;;;5105503;28;20580;-60
2023/02/10 12:48:54;;;;;;;18.37;5.97;;;8.80;99.90;;;;;;5110778;28;20633;-59
2023/02/10 12:51:44;;;;;;;17.57;6.50;;;8.70;99.90;;;;;;5106846;28;20256;-59
2023/02/10 12:54:17;;;;;;;14.33;5.47;;;8.60;99.90;;;;;;5099064;28;20582;-60
2023/02/10 12:56:50;;;;;;;14.73;6.80;;;8.50;99.90;;;;;;5092528;28;20238;-60
2023/02/10 12:59:24;;;;;;;9.87;6.37;;;8.50;99.90;;;;;;5092709;28;20674;-60
2023/02/10 13:01:57;;;;;;;15.50;7.00;;;8.60;99.90;;;;;;5091929;28;20247;-59